sensor_id;sensor_type;location;lat;lon;timestamp;pressure;altitude;pressure_sealevel;temperature;humidity
7109;BME280;29079;41.930;25.558;2023-05-09T00:00:13;99989.78;;;14.60;99.11
7109;BME280;29079;41.930;25.558;2023-05-09T00:02:46;99982.13;;;14.09;100.00
7109;BME280;29079;41.930;25.558;2023-05-09T00:05:19;99981.97;;;14.39;100.00
7109;BME280;29079;41.930;25.558;2023-05-09T00:07:53;99972.25;;;14.56;100.00
7109;BME280;29079;41.930;25.558;2023-05-09T00:10:26;99972.25;;;14.84;98.95
7109;BME280;29079;41.930;25.558;2023-05-09T00:12:59;99980.53;;;14.72;98.89
7109;BME280;29079;41.930;25.558;2023-05-09T00:15:33;99976.59;;;14.11;100.00
7109;BME280;29079;41.930;25.558;2023-05-09T00:18:06;99976.59;;;14.67;100.00
7109;BME280;29079;41.930;25.558;2023-05-09T00:20:39;99984.13;;;14.81;99.06
7109;BME280;29079;41.930;25.558;2023-05-09T00:23:12;99979.22;;;14.31;100.00
7109;BME280;29079;41.930;25.558;2023-05-09T00:25:45;99979.44;;;14.65;98.87
7109;BME280;29079;41.930;25.558;2023-05-09T00:28:18;99970.50;;;14.47;98.63
7109;BME280;29079;41.930;25.558;2023-05-09T00:30:53;99981.44;;;14.63;99.24
7109;BME280;29079;41.930;25.558;2023-05-09T00:33:26;99976.59;;;14.67;99.28
7109;BME280;29079;41.930;25.558;2023-05-09T00:35:59;99975.41;;;14.51;100.00
7109;BME280;29079;41.930;25.558;2023-05-09T00:38:32;99981.59;;;14.61;99.49
7109;BME280;29079;41.930;25.558;2023-05-09T00:41:04;99977.06;;;14.34;99.73
7109;BME280;29079;41.930;25.558;2023-05-09T00:43:37;99971.19;;;13.93;100.00
7109;BME280;29079;41.930;25.558;2023-05-09T00:46:11;99977.47;;;14.12;100.00
7109;BME280;29079;41.930;25.558;2023-05-09T00:48:45;99980.72;;;14.61;99.11
7109;BME280;29079;41.930;25.558;2023-05-09T00:51:18;99975.78;;;14.10;100.00
7109;BME280;29079;41.930;25.558;2023-05-09T00:53:51;99975.44;;;13.86;100.00
7109;BME280;29079;41.930;25.558;2023-05-09T00:56:24;99981.53;;;14.16;100.00
7109;BME280;29079;41.930;25.558;2023-05-09T00:58:57;99985.09;;;13.69;100.00
7109;BME280;29079;41.930;25.558;2023-05-09T01:01:31;99979.81;;;13.87;100.00
7109;BME280;29079;41.930;25.558;2023-05-09T01:04:04;99979.59;;;14.36;100.00
7109;BME280;29079;41.930;25.558;2023-05-09T01:06:40;99978.94;;;13.96;100.00
7109;BME280;29079;41.930;25.558;2023-05-09T01:09:18;99985.56;;;14.02;100.00
7109;BME280;29079;41.930;25.558;2023-05-09T01:11:57;99985.91;;;14.44;99.94
7109;BME280;29079;41.930;25.558;2023-05-09T01:14:34;99985.69;;;14.00;100.00
7109;BME280;29079;41.930;25.558;2023-05-09T01:17:11;99977.69;;;14.46;100.00
7109;BME280;29079;41.930;25.558;2023-05-09T01:19:51;99987.50;;;14.37;100.00
7109;BME280;29079;41.930;25.558;2023-05-09T01:22:27;99984.47;;;13.85;100.00
7109;BME280;29079;41.930;25.558;2023-05-09T01:27:52;99986.31;;;14.22;100.00
7109;BME280;29079;41.930;25.558;2023-05-09T01:30:30;99987.56;;;13.90;100.00
7109;BME280;29079;41.930;25.558;2023-05-09T01:33:06;99992.38;;;13.86;100.00
7109;BME280;29079;41.930;25.558;2023-05-09T01:35:39;99999.13;;;14.00;100.00
7109;BME280;29079;41.930;25.558;2023-05-09T01:38:16;99993.31;;;14.05;100.00
7109;BME280;29079;41.930;25.558;2023-05-09T01:40:51;99995.84;;;14.06;100.00
7109;BME280;29079;41.930;25.558;2023-05-09T01:43:26;100000.19;;;13.70;100.00
7109;BME280;29079;41.930;25.558;2023-05-09T01:46:01;100002.59;;;14.10;100.00
7109;BME280;29079;41.930;25.558;2023-05-09T01:48:36;100004.25;;;13.84;100.00
7109;BME280;29079;41.930;25.558;2023-05-09T01:51:12;99997.56;;;13.98;100.00
7109;BME280;29079;41.930;25.558;2023-05-09T01:53:46;99999.91;;;13.73;100.00
7109;BME280;29079;41.930;25.558;2023-05-09T01:56:19;99995.97;;;14.42;100.00
7109;BME280;29079;41.930;25.558;2023-05-09T01:58:54;99994.88;;;14.35;100.00
7109;BME280;29079;41.930;25.558;2023-05-09T02:01:29;99997.66;;;13.68;100.00
7109;BME280;29079;41.930;25.558;2023-05-09T02:04:02;99992.81;;;13.82;100.00
7109;BME280;29079;41.930;25.558;2023-05-09T02:06:36;99996.75;;;14.25;100.00
7109;BME280;29079;41.930;25.558;2023-05-09T02:09:10;99994.09;;;13.78;100.00
7109;BME280;29079;41.930;25.558;2023-05-09T02:11:44;100000.22;;;13.60;100.00
7109;BME280;29079;41.930;25.558;2023-05-09T02:14:17;100000.06;;;13.62;100.00
7109;BME280;29079;41.930;25.558;2023-05-09T02:16:51;99999.59;;;13.76;100.00
7109;BME280;29079;41.930;25.558;2023-05-09T02:19:24;100004.59;;;13.61;100.00
7109;BME280;29079;41.930;25.558;2023-05-09T02:21:59;99992.00;;;13.71;100.00
7109;BME280;29079;41.930;25.558;2023-05-09T02:24:32;100002.28;;;13.76;100.00
7109;BME280;29079;41.930;25.558;2023-05-09T02:27:05;100005.19;;;13.55;100.00
7109;BME280;29079;41.930;25.558;2023-05-09T02:29:40;100010.66;;;13.34;100.00
7109;BME280;29079;41.930;25.558;2023-05-09T02:32:17;100009.56;;;14.03;100.00
7109;BME280;29079;41.930;25.558;2023-05-09T02:34:51;100011.56;;;14.29;100.00
7109;BME280;29079;41.930;25.558;2023-05-09T02:37:26;100014.06;;;13.65;100.00
7109;BME280;29079;41.930;25.558;2023-05-09T02:39:59;100017.88;;;13.53;100.00
7109;BME280;29079;41.930;25.558;2023-05-09T02:42:33;100023.28;;;13.90;100.00
7109;BME280;29079;41.930;25.558;2023-05-09T02:45:06;100027.69;;;13.82;100.00
7109;BME280;29079;41.930;25.558;2023-05-09T02:47:42;100026.88;;;13.62;100.00
7109;BME280;29079;41.930;25.558;2023-05-09T02:50:15;100024.88;;;13.73;100.00
7109;BME280;29079;41.930;25.558;2023-05-09T02:52:48;100016.31;;;13.50;100.00
7109;BME280;29079;41.930;25.558;2023-05-09T02:55:21;100029.56;;;13.13;100.00
7109;BME280;29079;41.930;25.558;2023-05-09T02:57:54;100031.50;;;13.89;100.00
7109;BME280;29079;41.930;25.558;2023-05-09T03:00:43;100029.31;;;13.55;100.00
7109;BME280;29079;41.930;25.558;2023-05-09T03:03:18;100030.59;;;13.51;100.00
7109;BME280;29079;41.930;25.558;2023-05-09T03:05:52;100029.13;;;13.27;100.00
7109;BME280;29079;41.930;25.558;2023-05-09T03:08:25;100035.50;;;13.46;100.00
7109;BME280;29079;41.930;25.558;2023-05-09T03:10:58;100039.56;;;13.69;100.00
7109;BME280;29079;41.930;25.558;2023-05-09T03:13:31;100047.22;;;13.54;100.00
7109;BME280;29079;41.930;25.558;2023-05-09T03:16:04;100059.50;;;13.47;100.00
7109;BME280;29079;41.930;25.558;2023-05-09T03:18:39;100061.59;;;13.04;100.00
7109;BME280;29079;41.930;25.558;2023-05-09T03:21:11;100065.94;;;13.05;100.00
7109;BME280;29079;41.930;25.558;2023-05-09T03:23:45;100068.22;;;13.59;100.00
7109;BME280;29079;41.930;25.558;2023-05-09T03:26:18;100077.97;;;13.50;100.00
7109;BME280;29079;41.930;25.558;2023-05-09T03:28:51;100074.75;;;13.56;100.00
7109;BME280;29079;41.930;25.558;2023-05-09T03:31:25;100074.59;;;13.58;100.00
7109;BME280;29079;41.930;25.558;2023-05-09T03:33:59;100082.19;;;13.33;100.00
7109;BME280;29079;41.930;25.558;2023-05-09T03:36:32;100086.16;;;13.49;100.00
7109;BME280;29079;41.930;25.558;2023-05-09T03:39:05;100089.34;;;13.03;100.00
7109;BME280;29079;41.930;25.558;2023-05-09T03:41:39;100091.56;;;13.39;100.00
7109;BME280;29079;41.930;25.558;2023-05-09T03:44:12;100093.38;;;13.38;100.00
7109;BME280;29079;41.930;25.558;2023-05-09T03:46:45;100092.09;;;13.72;100.00
7109;BME280;29079;41.930;25.558;2023-05-09T03:49:19;100097.31;;;13.54;100.00
7109;BME280;29079;41.930;25.558;2023-05-09T03:51:52;100094.06;;;13.70;100.00
7109;BME280;29079;41.930;25.558;2023-05-09T03:54:27;100097.72;;;13.59;100.00
7109;BME280;29079;41.930;25.558;2023-05-09T03:57:00;100103.94;;;13.89;100.00
7109;BME280;29079;41.930;25.558;2023-05-09T03:59:33;100105.78;;;13.79;100.00
7109;BME280;29079;41.930;25.558;2023-05-09T04:02:06;100101.91;;;13.03;100.00
7109;BME280;29079;41.930;25.558;2023-05-09T04:04:40;100112.50;;;13.04;100.00
7109;BME280;29079;41.930;25.558;2023-05-09T04:07:13;100110.84;;;13.82;100.00
7109;BME280;29079;41.930;25.558;2023-05-09T04:09:46;100116.38;;;13.70;100.00
7109;BME280;29079;41.930;25.558;2023-05-09T04:12:20;100114.81;;;13.78;100.00
7109;BME280;29079;41.930;25.558;2023-05-09T04:14:52;100118.50;;;13.57;100.00
7109;BME280;29079;41.930;25.558;2023-05-09T04:17:25;100123.00;;;13.47;100.00
7109;BME280;29079;41.930;25.558;2023-05-09T04:20:00;100120.97;;;13.19;100.00
7109;BME280;29079;41.930;25.558;2023-05-09T04:22:33;100120.84;;;13.31;100.00
7109;BME280;29079;41.930;25.558;2023-05-09T04:25:06;100122.34;;;13.04;100.00
7109;BME280;29079;41.930;25.558;2023-05-09T04:27:43;100120.84;;;13.31;100.00
7109;BME280;29079;41.930;25.558;2023-05-09T04:30:16;100120.09;;;13.09;100.00
7109;BME280;29079;41.930;25.558;2023-05-09T04:32:49;100120.03;;;13.40;100.00
7109;BME280;29079;41.930;25.558;2023-05-09T04:35:25;100117.16;;;13.12;100.00
7109;BME280;29079;41.930;25.558;2023-05-09T04:37:58;100121.59;;;13.52;100.00
7109;BME280;29079;41.930;25.558;2023-05-09T04:40:31;100128.06;;;13.69;100.00
7109;BME280;29079;41.930;25.558;2023-05-09T04:43:05;100130.34;;;13.54;100.00
7109;BME280;29079;41.930;25.558;2023-05-09T04:45:38;100130.63;;;13.61;100.00
7109;BME280;29079;41.930;25.558;2023-05-09T04:48:11;100138.41;;;13.04;100.00
7109;BME280;29079;41.930;25.558;2023-05-09T04:50:45;100136.22;;;13.19;100.00
7109;BME280;29079;41.930;25.558;2023-05-09T04:53:19;100135.63;;;13.15;100.00
7109;BME280;29079;41.930;25.558;2023-05-09T04:55:52;100132.81;;;13.17;100.00
7109;BME280;29079;41.930;25.558;2023-05-09T04:58:25;100127.31;;;13.09;100.00
7109;BME280;29079;41.930;25.558;2023-05-09T05:00:58;100132.03;;;13.55;100.00
7109;BME280;29079;41.930;25.558;2023-05-09T05:03:31;100131.44;;;13.32;100.00
7109;BME280;29079;41.930;25.558;2023-05-09T05:06:06;100138.41;;;12.94;100.00
7109;BME280;29079;41.930;25.558;2023-05-09T05:08:39;100132.19;;;13.44;100.00
7109;BME280;29079;41.930;25.558;2023-05-09T05:11:12;100141.47;;;13.69;100.00
7109;BME280;29079;41.930;25.558;2023-05-09T05:13:45;100143.13;;;13.31;100.00
7109;BME280;29079;41.930;25.558;2023-05-09T05:16:18;100136.25;;;13.87;100.00
7109;BME280;29079;41.930;25.558;2023-05-09T05:18:50;100137.53;;;13.54;100.00
7109;BME280;29079;41.930;25.558;2023-05-09T05:21:25;100136.41;;;13.47;100.00
7109;BME280;29079;41.930;25.558;2023-05-09T05:23:58;100145.72;;;13.62;100.00
7109;BME280;29079;41.930;25.558;2023-05-09T05:26:33;100131.34;;;12.93;100.00
7109;BME280;29079;41.930;25.558;2023-05-09T05:29:06;100133.28;;;13.41;100.00
7109;BME280;29079;41.930;25.558;2023-05-09T05:31:39;100134.13;;;13.52;100.00
7109;BME280;29079;41.930;25.558;2023-05-09T05:34:12;100139.09;;;13.47;100.00
7109;BME280;29079;41.930;25.558;2023-05-09T05:36:48;100139.38;;;13.63;100.00
7109;BME280;29079;41.930;25.558;2023-05-09T05:39:21;100132.88;;;13.36;100.00
7109;BME280;29079;41.930;25.558;2023-05-09T05:41:54;100132.00;;;13.26;100.00
7109;BME280;29079;41.930;25.558;2023-05-09T05:44:27;100135.03;;;13.02;100.00
7109;BME280;29079;41.930;25.558;2023-05-09T05:47:00;100136.09;;;13.30;100.00
7109;BME280;29079;41.930;25.558;2023-05-09T05:49:33;100137.41;;;12.95;100.00
7109;BME280;29079;41.930;25.558;2023-05-09T05:52:07;100147.75;;;13.10;100.00
7109;BME280;29079;41.930;25.558;2023-05-09T05:54:40;100140.50;;;13.61;100.00
7109;BME280;29079;41.930;25.558;2023-05-09T05:57:13;100142.56;;;13.28;100.00
7109;BME280;29079;41.930;25.558;2023-05-09T05:59:46;100148.41;;;13.43;100.00
7109;BME280;29079;41.930;25.558;2023-05-09T06:02:19;100153.16;;;13.29;100.00
7109;BME280;29079;41.930;25.558;2023-05-09T06:04:52;100149.31;;;12.71;100.00
7109;BME280;29079;41.930;25.558;2023-05-09T06:07:28;100154.25;;;13.17;100.00
7109;BME280;29079;41.930;25.558;2023-05-09T06:10:01;100154.22;;;12.97;100.00
7109;BME280;29079;41.930;25.558;2023-05-09T06:12:35;100153.59;;;12.84;100.00
7109;BME280;29079;41.930;25.558;2023-05-09T06:15:08;100150.16;;;13.22;100.00
7109;BME280;29079;41.930;25.558;2023-05-09T06:17:41;100154.00;;;13.30;100.00
7109;BME280;29079;41.930;25.558;2023-05-09T06:20:14;100142.13;;;13.22;100.00
7109;BME280;29079;41.930;25.558;2023-05-09T06:22:49;100154.78;;;13.01;100.00
7109;BME280;29079;41.930;25.558;2023-05-09T06:25:22;100148.97;;;13.56;100.00
7109;BME280;29079;41.930;25.558;2023-05-09T06:27:55;100146.09;;;13.28;100.00
7109;BME280;29079;41.930;25.558;2023-05-09T06:30:27;100130.75;;;13.79;100.00
7109;BME280;29079;41.930;25.558;2023-05-09T06:33:00;100149.81;;;13.66;100.00
7109;BME280;29079;41.930;25.558;2023-05-09T06:35:33;100149.38;;;13.81;100.00
7109;BME280;29079;41.930;25.558;2023-05-09T06:38:08;100144.16;;;13.50;99.78
7109;BME280;29079;41.930;25.558;2023-05-09T06:40:41;100144.06;;;13.01;100.00
7109;BME280;29079;41.930;25.558;2023-05-09T06:43:14;100154.63;;;13.53;100.00
7109;BME280;29079;41.930;25.558;2023-05-09T06:45:46;100152.50;;;13.47;100.00
7109;BME280;29079;41.930;25.558;2023-05-09T06:48:19;100154.19;;;13.67;100.00
7109;BME280;29079;41.930;25.558;2023-05-09T06:50:54;100154.22;;;13.48;100.00
7109;BME280;29079;41.930;25.558;2023-05-09T06:53:28;100151.25;;;13.51;100.00
7109;BME280;29079;41.930;25.558;2023-05-09T06:56:01;100155.19;;;13.66;100.00
7109;BME280;29079;41.930;25.558;2023-05-09T06:58:34;100153.06;;;13.89;99.47
7109;BME280;29079;41.930;25.558;2023-05-09T07:01:07;100153.22;;;13.58;100.00
7109;BME280;29079;41.930;25.558;2023-05-09T07:03:40;100146.16;;;13.48;100.00
7109;BME280;29079;41.930;25.558;2023-05-09T07:06:13;100151.66;;;12.96;100.00
7109;BME280;29079;41.930;25.558;2023-05-09T07:08:47;100156.75;;;13.49;100.00
7109;BME280;29079;41.930;25.558;2023-05-09T07:11:20;100149.41;;;13.71;100.00
7109;BME280;29079;41.930;25.558;2023-05-09T07:13:53;100151.81;;;13.64;100.00
7109;BME280;29079;41.930;25.558;2023-05-09T07:16:27;100155.75;;;13.80;99.70
7109;BME280;29079;41.930;25.558;2023-05-09T07:19:00;100156.75;;;13.79;99.79
7109;BME280;29079;41.930;25.558;2023-05-09T07:21:33;100147.63;;;14.19;97.84
7109;BME280;29079;41.930;25.558;2023-05-09T07:24:07;100154.34;;;13.66;100.00
7109;BME280;29079;41.930;25.558;2023-05-09T07:26:40;100156.00;;;13.37;100.00
7109;BME280;29079;41.930;25.558;2023-05-09T07:29:13;100165.34;;;13.53;100.00
7109;BME280;29079;41.930;25.558;2023-05-09T07:31:47;100154.91;;;13.99;98.19
7109;BME280;29079;41.930;25.558;2023-05-09T07:34:20;100160.81;;;13.53;100.00
7109;BME280;29079;41.930;25.558;2023-05-09T07:36:54;100166.75;;;13.57;100.00
7109;BME280;29079;41.930;25.558;2023-05-09T07:39:30;100161.97;;;13.70;98.93
7109;BME280;29079;41.930;25.558;2023-05-09T07:42:03;100157.69;;;13.38;100.00
7109;BME280;29079;41.930;25.558;2023-05-09T07:44:36;100167.66;;;13.17;100.00
7109;BME280;29079;41.930;25.558;2023-05-09T07:47:09;100171.63;;;13.32;100.00
7109;BME280;29079;41.930;25.558;2023-05-09T07:49:42;100175.34;;;13.61;98.81
7109;BME280;29079;41.930;25.558;2023-05-09T07:52:17;100174.66;;;13.39;100.00
7109;BME280;29079;41.930;25.558;2023-05-09T07:54:51;100179.47;;;13.84;98.23
7109;BME280;29079;41.930;25.558;2023-05-09T07:57:25;100179.44;;;13.35;99.77
7109;BME280;29079;41.930;25.558;2023-05-09T07:59:58;100179.09;;;13.29;99.79
7109;BME280;29079;41.930;25.558;2023-05-09T08:02:32;100175.53;;;12.68;100.00
7109;BME280;29079;41.930;25.558;2023-05-09T08:05:05;100181.09;;;12.86;100.00
7109;BME280;29079;41.930;25.558;2023-05-09T08:07:38;100185.97;;;13.12;100.00
7109;BME280;29079;41.930;25.558;2023-05-09T08:10:13;100181.78;;;12.78;100.00
7109;BME280;29079;41.930;25.558;2023-05-09T08:12:47;100200.34;;;13.61;96.79
7109;BME280;29079;41.930;25.558;2023-05-09T08:15:20;100188.22;;;13.57;96.90
7109;BME280;29079;41.930;25.558;2023-05-09T08:17:53;100197.94;;;13.48;95.50
7109;BME280;29079;41.930;25.558;2023-05-09T08:20:26;100191.88;;;13.56;96.14
7109;BME280;29079;41.930;25.558;2023-05-09T08:22:59;100194.13;;;13.51;95.44
7109;BME280;29079;41.930;25.558;2023-05-09T08:25:33;100188.75;;;13.00;98.44
7109;BME280;29079;41.930;25.558;2023-05-09T08:28:06;100185.38;;;12.98;100.00
7109;BME280;29079;41.930;25.558;2023-05-09T08:30:39;100185.75;;;13.24;100.00
7109;BME280;29079;41.930;25.558;2023-05-09T08:33:13;100174.81;;;13.57;99.47
7109;BME280;29079;41.930;25.558;2023-05-09T08:35:49;100178.03;;;13.41;97.99
7109;BME280;29079;41.930;25.558;2023-05-09T08:38:21;100190.41;;;13.32;98.81
7109;BME280;29079;41.930;25.558;2023-05-09T08:41:00;100186.78;;;13.53;98.27
7109;BME280;29079;41.930;25.558;2023-05-09T08:43:35;100179.38;;;13.16;99.03
7109;BME280;29079;41.930;25.558;2023-05-09T08:46:09;100182.56;;;13.10;100.00
7109;BME280;29079;41.930;25.558;2023-05-09T08:48:42;100184.59;;;13.17;98.94
7109;BME280;29079;41.930;25.558;2023-05-09T08:51:16;100183.69;;;13.67;96.73
7109;BME280;29079;41.930;25.558;2023-05-09T08:53:49;100176.59;;;13.37;97.51
7109;BME280;29079;41.930;25.558;2023-05-09T08:56:23;100187.94;;;13.70;96.04
7109;BME280;29079;41.930;25.558;2023-05-09T08:58:57;100188.91;;;13.59;96.83
7109;BME280;29079;41.930;25.558;2023-05-09T09:01:30;100182.84;;;13.06;98.59
7109;BME280;29079;41.930;25.558;2023-05-09T09:04:05;100185.38;;;13.39;98.20
7109;BME280;29079;41.930;25.558;2023-05-09T09:06:38;100183.94;;;13.45;97.10
7109;BME280;29079;41.930;25.558;2023-05-09T09:09:11;100179.63;;;13.03;97.22
7109;BME280;29079;41.930;25.558;2023-05-09T09:11:46;100178.81;;;12.81;96.40
7109;BME280;29079;41.930;25.558;2023-05-09T09:14:22;100172.09;;;12.97;98.77
7109;BME280;29079;41.930;25.558;2023-05-09T09:16:56;100177.19;;;13.50;97.54
7109;BME280;29079;41.930;25.558;2023-05-09T09:19:30;100171.97;;;13.58;96.06
7109;BME280;29079;41.930;25.558;2023-05-09T09:22:05;100169.44;;;13.76;95.65
7109;BME280;29079;41.930;25.558;2023-05-09T09:24:39;100171.28;;;13.56;96.69
7109;BME280;29079;41.930;25.558;2023-05-09T09:27:14;100176.63;;;13.47;94.67
7109;BME280;29079;41.930;25.558;2023-05-09T09:29:47;100180.63;;;13.12;96.54
7109;BME280;29079;41.930;25.558;2023-05-09T09:32:19;100186.50;;;13.56;94.11
7109;BME280;29079;41.930;25.558;2023-05-09T09:34:55;100180.75;;;13.90;94.14
7109;BME280;29079;41.930;25.558;2023-05-09T09:37:38;100176.50;;;13.58;94.79
7109;BME280;29079;41.930;25.558;2023-05-09T09:40:13;100172.13;;;13.67;95.98
7109;BME280;29079;41.930;25.558;2023-05-09T09:42:50;100171.56;;;13.44;96.34
7109;BME280;29079;41.930;25.558;2023-05-09T09:45:23;100174.94;;;13.55;94.76
7109;BME280;29079;41.930;25.558;2023-05-09T09:47:56;100177.78;;;13.64;93.95
7109;BME280;29079;41.930;25.558;2023-05-09T09:50:29;100174.66;;;12.98;93.72
7109;BME280;29079;41.930;25.558;2023-05-09T09:53:02;100181.00;;;12.97;95.89
7109;BME280;29079;41.930;25.558;2023-05-09T09:55:35;100173.25;;;13.64;94.25
7109;BME280;29079;41.930;25.558;2023-05-09T09:58:16;100182.09;;;13.35;93.30
7109;BME280;29079;41.930;25.558;2023-05-09T10:01:02;100174.94;;;13.55;94.90
7109;BME280;29079;41.930;25.558;2023-05-09T10:03:37;100178.59;;;13.84;95.47
7109;BME280;29079;41.930;25.558;2023-05-09T10:06:11;100177.06;;;13.91;93.08
7109;BME280;29079;41.930;25.558;2023-05-09T10:08:45;100177.63;;;13.55;95.22
7109;BME280;29079;41.930;25.558;2023-05-09T10:11:19;100180.47;;;13.13;96.08
7109;BME280;29079;41.930;25.558;2023-05-09T10:13:54;100181.13;;;13.36;95.33
7109;BME280;29079;41.930;25.558;2023-05-09T10:16:27;100181.72;;;13.69;95.76
7109;BME280;29079;41.930;25.558;2023-05-09T10:19:15;100177.94;;;13.21;95.55
7109;BME280;29079;41.930;25.558;2023-05-09T10:21:50;100173.66;;;13.50;97.68
7109;BME280;29079;41.930;25.558;2023-05-09T10:24:26;100173.66;;;13.50;94.48
7109;BME280;29079;41.930;25.558;2023-05-09T10:27:01;100173.56;;;13.71;95.94
7109;BME280;29079;41.930;25.558;2023-05-09T10:29:40;100168.59;;;13.47;94.46
7109;BME280;29079;41.930;25.558;2023-05-09T10:32:15;100171.84;;;13.40;93.56
7109;BME280;29079;41.930;25.558;2023-05-09T10:34:52;100172.56;;;13.52;95.36
7109;BME280;29079;41.930;25.558;2023-05-09T10:37:26;100172.66;;;13.41;94.22
7109;BME280;29079;41.930;25.558;2023-05-09T10:40:02;100173.09;;;13.85;93.91
7109;BME280;29079;41.930;25.558;2023-05-09T10:42:36;100169.59;;;13.55;93.83
7109;BME280;29079;41.930;25.558;2023-05-09T10:45:11;100172.69;;;13.90;93.25
7109;BME280;29079;41.930;25.558;2023-05-09T10:47:45;100168.59;;;13.66;93.12
7109;BME280;29079;41.930;25.558;2023-05-09T10:50:19;100167.47;;;13.88;92.26
7109;BME280;29079;41.930;25.558;2023-05-09T10:53:08;100177.22;;;13.80;91.64
7109;BME280;29079;41.930;25.558;2023-05-09T10:55:49;100168.13;;;14.20;88.50
7109;BME280;29079;41.930;25.558;2023-05-09T10:58:26;100173.38;;;14.02;89.54
7109;BME280;29079;41.930;25.558;2023-05-09T11:01:01;100178.06;;;13.80;90.58
7109;BME280;29079;41.930;25.558;2023-05-09T11:03:53;100178.59;;;13.84;91.37
7109;BME280;29079;41.930;25.558;2023-05-09T11:06:39;100170.56;;;14.03;90.37
7109;BME280;29079;41.930;25.558;2023-05-09T11:09:25;100181.59;;;13.90;90.98
7109;BME280;29079;41.930;25.558;2023-05-09T11:12:00;100188.50;;;13.93;91.90
7109;BME280;29079;41.930;25.558;2023-05-09T11:14:39;100176.41;;;14.46;88.83
7109;BME280;29079;41.930;25.558;2023-05-09T11:17:26;100173.56;;;14.48;89.48
7109;BME280;29079;41.930;25.558;2023-05-09T11:20:00;100169.97;;;14.19;87.53
7109;BME280;29079;41.930;25.558;2023-05-09T11:22:39;100177.34;;;13.98;89.30
7109;BME280;29079;41.930;25.558;2023-05-09T11:25:12;100173.41;;;13.72;89.06
7109;BME280;29079;41.930;25.558;2023-05-09T11:27:48;100178.22;;;13.79;89.80
7109;BME280;29079;41.930;25.558;2023-05-09T11:30:22;100179.75;;;13.91;90.84
7109;BME280;29079;41.930;25.558;2023-05-09T11:33:07;100177.47;;;13.57;90.42
7109;BME280;29079;41.930;25.558;2023-05-09T11:38:40;100156.72;;;14.08;89.60
7109;BME280;29079;41.930;25.558;2023-05-09T11:41:14;100156.03;;;14.06;90.72
7109;BME280;29079;41.930;25.558;2023-05-09T11:43:46;100158.41;;;14.09;90.57
7109;BME280;29079;41.930;25.558;2023-05-09T11:46:21;100164.75;;;14.18;89.63
7109;BME280;29079;41.930;25.558;2023-05-09T11:48:55;100160.69;;;14.61;88.51
7109;BME280;29079;41.930;25.558;2023-05-09T11:51:28;100160.25;;;13.89;87.65
7109;BME280;29079;41.930;25.558;2023-05-09T11:54:02;100156.03;;;14.06;90.32
7109;BME280;29079;41.930;25.558;2023-05-09T11:56:37;100149.41;;;14.48;87.46
7109;BME280;29079;41.930;25.558;2023-05-09T11:59:10;100143.56;;;14.15;89.22
7109;BME280;29079;41.930;25.558;2023-05-09T12:01:45;100151.59;;;14.24;88.10
7109;BME280;29079;41.930;25.558;2023-05-09T12:04:19;100147.53;;;14.20;88.58
7109;BME280;29079;41.930;25.558;2023-05-09T12:06:52;100151.72;;;14.33;87.91
7109;BME280;29079;41.930;25.558;2023-05-09T12:09:28;100146.91;;;14.36;87.22
7109;BME280;29079;41.930;25.558;2023-05-09T12:12:01;100144.09;;;14.28;85.81
7109;BME280;29079;41.930;25.558;2023-05-09T12:14:41;100139.28;;;14.32;86.95
7109;BME280;29079;41.930;25.558;2023-05-09T12:17:14;100139.94;;;14.43;87.41
7109;BME280;29079;41.930;25.558;2023-05-09T12:19:48;100138.28;;;14.80;83.82
7109;BME280;29079;41.930;25.558;2023-05-09T12:22:21;100132.56;;;14.55;83.96
7109;BME280;29079;41.930;25.558;2023-05-09T12:24:54;100132.75;;;14.44;85.96
7109;BME280;29079;41.930;25.558;2023-05-09T12:27:27;100127.06;;;14.57;85.19
7109;BME280;29079;41.930;25.558;2023-05-09T12:30:03;100130.09;;;14.34;86.21
7109;BME280;29079;41.930;25.558;2023-05-09T12:32:39;100117.53;;;14.72;87.09
7109;BME280;29079;41.930;25.558;2023-05-09T12:35:14;100118.84;;;14.68;84.19
7109;BME280;29079;41.930;25.558;2023-05-09T12:37:57;100117.44;;;14.64;86.06
7109;BME280;29079;41.930;25.558;2023-05-09T12:40:30;100124.41;;;14.37;83.70
7109;BME280;29079;41.930;25.558;2023-05-09T12:43:03;100112.41;;;14.41;85.32
7109;BME280;29079;41.930;25.558;2023-05-09T12:45:37;100106.84;;;14.53;85.17
7109;BME280;29079;41.930;25.558;2023-05-09T12:48:10;100113.00;;;14.35;85.01
7109;BME280;29079;41.930;25.558;2023-05-09T12:50:47;100101.94;;;14.48;86.35
7109;BME280;29079;41.930;25.558;2023-05-09T12:53:23;100113.97;;;14.34;84.43
7109;BME280;29079;41.930;25.558;2023-05-09T12:55:59;100109.31;;;14.36;83.56
7109;BME280;29079;41.930;25.558;2023-05-09T12:58:33;100098.06;;;14.51;87.44
7109;BME280;29079;41.930;25.558;2023-05-09T13:01:06;100099.03;;;14.69;83.29
7109;BME280;29079;41.930;25.558;2023-05-09T13:03:39;100104.22;;;14.33;82.00
7109;BME280;29079;41.930;25.558;2023-05-09T13:06:14;100096.97;;;14.43;85.15
7109;BME280;29079;41.930;25.558;2023-05-09T13:08:55;100099.47;;;14.55;85.78
7109;BME280;29079;41.930;25.558;2023-05-09T13:11:29;100096.28;;;14.41;82.67
7109;BME280;29079;41.930;25.558;2023-05-09T13:14:02;100095.09;;;14.63;84.62
7109;BME280;29079;41.930;25.558;2023-05-09T13:16:35;100088.28;;;14.69;83.51
7109;BME280;29079;41.930;25.558;2023-05-09T13:19:08;100089.28;;;14.68;85.26
7109;BME280;29079;41.930;25.558;2023-05-09T13:21:43;100086.47;;;14.88;83.63
7109;BME280;29079;41.930;25.558;2023-05-09T13:24:16;100089.97;;;14.60;81.76
7109;BME280;29079;41.930;25.558;2023-05-09T13:26:49;100078.13;;;14.63;84.56